sensor_id;sensor_type;location;lat;lon;timestamp;pressure;altitude;pressure_sealevel;temperature;humidity
2549;BME280;1284;53.520;10.248;2024-01-15T01:22:43;98416.44;;;4.00;99.73
2549;BME280;1284;53.520;10.248;2024-01-15T01:25:09;98411.97;;;4.11;98.47
2549;BME280;1284;53.520;10.248;2024-01-15T01:27:35;98405.41;;;3.98;98.27
2549;BME280;1284;53.520;10.248;2024-01-15T01:30:01;98393.41;;;4.18;98.56
2549;BME280;1284;53.520;10.248;2024-01-15T01:32:26;98382.72;;;4.14;98.62
2549;BME280;1284;53.520;10.248;2024-01-15T04:34:09;98397.63;;;4.22;100.00
2549;BME280;1284;53.520;10.248;2024-01-15T04:39:35;98401.75;;;4.16;99.40
2549;BME280;1284;53.520;10.248;2024-01-15T04:42:32;98409.13;;;3.90;99.80
2549;BME280;1284;53.520;10.248;2024-01-15T04:45:28;98412.16;;;3.88;100.00
2549;BME280;1284;53.520;10.248;2024-01-15T04:51:26;98414.97;;;4.06;99.63
2549;BME280;1284;53.520;10.248;2024-01-15T04:57:09;98406.88;;;3.95;100.00
2549;BME280;1284;53.520;10.248;2024-01-15T05:04:17;98408.88;;;4.05;99.54
2549;BME280;1284;53.520;10.248;2024-01-15T05:07:14;98408.44;;;4.00;99.70
2549;BME280;1284;53.520;10.248;2024-01-15T05:10:00;98404.31;;;4.02;99.76
2549;BME280;1284;53.520;10.248;2024-01-15T05:13:26;98415.00;;;4.09;98.18
2549;BME280;1284;53.520;10.248;2024-01-15T05:28:00;98410.91;;;4.19;97.05
2549;BME280;1284;53.520;10.248;2024-01-15T05:34:32;98418.75;;;4.05;98.76
2549;BME280;1284;53.520;10.248;2024-01-15T05:37:59;98416.22;;;4.19;97.66
2549;BME280;1284;53.520;10.248;2024-01-15T05:45:02;98413.94;;;4.17;97.74
2549;BME280;1284;53.520;10.248;2024-01-15T05:48:02;98408.28;;;4.26;97.19
2549;BME280;1284;53.520;10.248;2024-01-15T05:51:18;98417.59;;;3.99;98.88
2549;BME280;1284;53.520;10.248;2024-01-15T05:58:34;98418.56;;;4.24;98.84
2549;BME280;1284;53.520;10.248;2024-01-15T06:01:47;98411.59;;;4.12;99.28
2549;BME280;1284;53.520;10.248;2024-01-15T06:19:57;98433.56;;;3.99;100.00
2549;BME280;1284;53.520;10.248;2024-01-15T06:22:23;98435.75;;;3.93;100.00
2549;BME280;1284;53.520;10.248;2024-01-15T06:24:48;98433.69;;;4.13;99.55
2549;BME280;1284;53.520;10.248;2024-01-15T06:27:13;98432.56;;;4.14;99.31
2549;BME280;1284;53.520;10.248;2024-01-15T06:29:39;98429.41;;;4.05;99.28
2549;BME280;1284;53.520;10.248;2024-01-15T06:32:09;98429.91;;;4.14;98.90
2549;BME280;1284;53.520;10.248;2024-01-15T06:34:35;98420.59;;;3.97;99.53
2549;BME280;1284;53.520;10.248;2024-01-15T06:37:00;98423.81;;;4.17;99.00
2549;BME280;1284;53.520;10.248;2024-01-15T06:39:25;98424.47;;;4.07;99.52
2549;BME280;1284;53.520;10.248;2024-01-15T06:41:51;98434.03;;;4.11;99.75
2549;BME280;1284;53.520;10.248;2024-01-15T06:44:16;98428.47;;;4.27;99.37
2549;BME280;1284;53.520;10.248;2024-01-15T06:46:42;98431.31;;;4.48;98.17
2549;BME280;1284;53.520;10.248;2024-01-15T06:49:08;98434.38;;;4.50;97.35
2549;BME280;1284;53.520;10.248;2024-01-15T06:51:34;98435.44;;;4.38;97.43
2549;BME280;1284;53.520;10.248;2024-01-15T06:53:59;98437.88;;;4.14;98.53
2549;BME280;1284;53.520;10.248;2024-01-15T06:56:25;98433.47;;;4.32;98.65
2549;BME280;1284;53.520;10.248;2024-01-15T06:58:50;98427.94;;;4.54;97.25
2549;BME280;1284;53.520;10.248;2024-01-15T07:01:16;98433.56;;;4.42;96.52
2549;BME280;1284;53.520;10.248;2024-01-15T07:03:41;98438.78;;;4.32;97.61
2549;BME280;1284;53.520;10.248;2024-01-15T07:06:07;98445.28;;;4.34;97.87
2549;BME280;1284;53.520;10.248;2024-01-15T07:08:32;98442.31;;;4.43;97.36
2549;BME280;1284;53.520;10.248;2024-01-15T07:10:58;98426.25;;;4.36;97.22
2549;BME280;1284;53.520;10.248;2024-01-15T07:13:25;98441.78;;;4.23;97.52
2549;BME280;1284;53.520;10.248;2024-01-15T07:15:51;98444.28;;;4.09;98.34
2549;BME280;1284;53.520;10.248;2024-01-15T07:18:16;98443.63;;;4.19;98.03
2549;BME280;1284;53.520;10.248;2024-01-15T07:20:42;98454.06;;;4.38;97.65
2549;BME280;1284;53.520;10.248;2024-01-15T07:23:07;98451.09;;;4.07;97.67
2549;BME280;1284;53.520;10.248;2024-01-15T07:25:33;98456.81;;;4.05;97.81
2549;BME280;1284;53.520;10.248;2024-01-15T07:27:59;98451.38;;;4.35;97.37
2549;BME280;1284;53.520;10.248;2024-01-15T07:30:24;98458.56;;;4.31;96.94
2549;BME280;1284;53.520;10.248;2024-01-15T07:32:50;98458.00;;;4.11;97.47
2549;BME280;1284;53.520;10.248;2024-01-15T07:35:16;98473.34;;;4.25;97.68
2549;BME280;1284;53.520;10.248;2024-01-15T07:37:44;98468.16;;;4.35;96.41
2549;BME280;1284;53.520;10.248;2024-01-15T07:40:10;98467.97;;;4.18;97.24
2549;BME280;1284;53.520;10.248;2024-01-15T07:42:36;98466.53;;;4.27;96.54
2549;BME280;1284;53.520;10.248;2024-01-15T07:45:01;98461.19;;;4.24;97.50
2549;BME280;1284;53.520;10.248;2024-01-15T07:47:27;98470.75;;;4.32;96.65
2549;BME280;1284;53.520;10.248;2024-01-15T07:49:53;98475.81;;;4.44;95.99
2549;BME280;1284;53.520;10.248;2024-01-15T07:52:19;98477.69;;;4.03;96.92
2549;BME280;1284;53.520;10.248;2024-01-15T07:54:45;98479.53;;;3.96;97.58
2549;BME280;1284;53.520;10.248;2024-01-15T07:57:10;98479.84;;;4.27;97.16
2549;BME280;1284;53.520;10.248;2024-01-15T07:59:36;98480.81;;;4.12;97.09
2549;BME280;1284;53.520;10.248;2024-01-15T08:02:01;98473.81;;;4.34;95.82
2549;BME280;1284;53.520;10.248;2024-01-15T08:04:27;98480.28;;;4.33;95.95
2549;BME280;1284;53.520;10.248;2024-01-15T08:06:52;98477.28;;;4.38;95.08
2549;BME280;1284;53.520;10.248;2024-01-15T08:09:18;98478.88;;;4.46;94.41
2549;BME280;1284;53.520;10.248;2024-01-15T08:11:43;98477.25;;;4.34;95.07
2549;BME280;1284;53.520;10.248;2024-01-15T08:14:09;98477.25;;;4.34;95.56
2549;BME280;1284;53.520;10.248;2024-01-15T08:16:36;98484.59;;;4.48;94.45
2549;BME280;1284;53.520;10.248;2024-01-15T08:19:02;98480.81;;;4.49;94.10
2549;BME280;1284;53.520;10.248;2024-01-15T08:21:27;98481.72;;;4.23;95.14
2549;BME280;1284;53.520;10.248;2024-01-15T08:23:57;98469.63;;;4.33;95.60
2549;BME280;1284;53.520;10.248;2024-01-15T08:26:23;98478.03;;;4.35;94.65
2549;BME280;1284;53.520;10.248;2024-01-15T08:28:49;98473.59;;;4.53;94.03
2549;BME280;1284;53.520;10.248;2024-01-15T08:31:14;98475.56;;;4.59;94.13
2549;BME280;1284;53.520;10.248;2024-01-15T08:33:40;98481.16;;;4.47;94.30
2549;BME280;1284;53.520;10.248;2024-01-15T08:36:06;98486.59;;;4.58;94.54
2549;BME280;1284;53.520;10.248;2024-01-15T08:38:31;98492.31;;;4.56;94.43
2549;BME280;1284;53.520;10.248;2024-01-15T08:40:57;98506.78;;;4.59;93.97
2549;BME280;1284;53.520;10.248;2024-01-15T08:43:24;98494.91;;;4.53;93.95
2549;BME280;1284;53.520;10.248;2024-01-15T08:45:50;98500.16;;;4.42;94.52
2549;BME280;1284;53.520;10.248;2024-01-15T08:48:16;98507.47;;;4.49;95.71
2549;BME280;1284;53.520;10.248;2024-01-15T08:50:42;98511.88;;;4.34;95.16
2549;BME280;1284;53.520;10.248;2024-01-15T08:53:07;98522.94;;;4.36;95.04
2549;BME280;1284;53.520;10.248;2024-01-15T08:55:33;98516.94;;;4.46;95.38
2549;BME280;1284;53.520;10.248;2024-01-15T08:57:58;98519.78;;;4.64;94.59
2549;BME280;1284;53.520;10.248;2024-01-15T09:00:24;98525.25;;;4.41;94.74
2549;BME280;1284;53.520;10.248;2024-01-15T09:02:49;98517.59;;;4.33;96.33
2549;BME280;1284;53.520;10.248;2024-01-15T09:05:15;98513.97;;;4.55;95.14
2549;BME280;1284;53.520;10.248;2024-01-15T09:07:40;98522.31;;;4.50;95.28
2549;BME280;1284;53.520;10.248;2024-01-15T09:10:06;98528.53;;;4.28;96.79
2549;BME280;1284;53.520;10.248;2024-01-15T09:12:32;98531.50;;;4.56;95.94
2549;BME280;1284;53.520;10.248;2024-01-15T09:14:57;98526.13;;;4.49;95.08
2549;BME280;1284;53.520;10.248;2024-01-15T09:17:22;98524.53;;;4.44;95.40
2549;BME280;1284;53.520;10.248;2024-01-15T09:19:49;98529.97;;;4.55;95.73
2549;BME280;1284;53.520;10.248;2024-01-15T09:22:14;98521.47;;;4.42;95.75
2549;BME280;1284;53.520;10.248;2024-01-15T09:24:44;98541.34;;;4.52;95.88
2549;BME280;1284;53.520;10.248;2024-01-15T09:27:09;98529.84;;;4.41;96.57
2549;BME280;1284;53.520;10.248;2024-01-15T09:29:35;98526.00;;;4.38;97.19
2549;BME280;1284;53.520;10.248;2024-01-15T09:32:03;98546.25;;;4.46;96.34
2549;BME280;1284;53.520;10.248;2024-01-15T09:34:29;98544.50;;;4.24;96.79
2549;BME280;1284;53.520;10.248;2024-01-15T09:36:55;98544.13;;;4.26;97.46
2549;BME280;1284;53.520;10.248;2024-01-15T09:39:20;98551.47;;;4.36;97.11
2549;BME280;1284;53.520;10.248;2024-01-15T09:41:47;98563.34;;;4.42;97.80
2549;BME280;1284;53.520;10.248;2024-01-15T09:44:15;98569.47;;;4.46;98.45
2549;BME280;1284;53.520;10.248;2024-01-15T09:46:41;98559.31;;;4.58;97.31
2549;BME280;1284;53.520;10.248;2024-01-15T09:49:10;98555.38;;;4.45;97.34
2549;BME280;1284;53.520;10.248;2024-01-15T09:51:36;98572.78;;;4.36;96.98
2549;BME280;1284;53.520;10.248;2024-01-15T09:54:02;98577.31;;;4.32;98.01
2549;BME280;1284;53.520;10.248;2024-01-15T09:56:30;98572.59;;;4.55;96.96
2549;BME280;1284;53.520;10.248;2024-01-15T09:58:57;98572.88;;;4.10;97.74
2549;BME280;1284;53.520;10.248;2024-01-15T10:01:23;98567.66;;;4.20;97.87
2549;BME280;1284;53.520;10.248;2024-01-15T10:03:49;98573.34;;;4.19;97.61
2549;BME280;1284;53.520;10.248;2024-01-15T10:06:16;98581.34;;;3.89;99.14
2549;BME280;1284;53.520;10.248;2024-01-15T10:08:51;98573.75;;;3.88;99.56
2549;BME280;1284;53.520;10.248;2024-01-15T10:11:17;98586.34;;;3.91;99.61
2549;BME280;1284;53.520;10.248;2024-01-15T10:13:43;98592.38;;;3.88;100.00
2549;BME280;1284;53.520;10.248;2024-01-15T10:16:09;98595.75;;;3.85;100.00
2549;BME280;1284;53.520;10.248;2024-01-15T10:18:35;98604.78;;;3.77;100.00
2549;BME280;1284;53.520;10.248;2024-01-15T10:21:08;98595.66;;;4.07;100.00
2549;BME280;1284;53.520;10.248;2024-01-15T10:23:34;98604.66;;;3.96;99.48
2549;BME280;1284;53.520;10.248;2024-01-15T10:26:00;98601.03;;;4.11;99.54
2549;BME280;1284;53.520;10.248;2024-01-15T10:28:26;98609.66;;;4.01;98.94
2549;BME280;1284;53.520;10.248;2024-01-15T10:30:55;98608.59;;;4.09;98.78
2549;BME280;1284;53.520;10.248;2024-01-15T10:33:23;98609.53;;;4.20;98.72
2549;BME280;1284;53.520;10.248;2024-01-15T10:35:55;98614.53;;;4.25;98.12
2549;BME280;1284;53.520;10.248;2024-01-15T10:38:22;98606.53;;;4.25;98.94
2549;BME280;1284;53.520;10.248;2024-01-15T10:40:51;98611.41;;;4.19;98.55
2549;BME280;1284;53.520;10.248;2024-01-15T10:43:17;98617.56;;;4.23;98.72
2549;BME280;1284;53.520;10.248;2024-01-15T10:45:46;98622.66;;;4.35;98.12
2549;BME280;1284;53.520;10.248;2024-01-15T10:48:12;98623.06;;;4.37;98.65
2549;BME280;1284;53.520;10.248;2024-01-15T10:50:38;98621.06;;;4.31;98.59
2549;BME280;1284;53.520;10.248;2024-01-15T10:53:05;98635.75;;;4.51;98.67
2549;BME280;1284;53.520;10.248;2024-01-15T10:55:31;98642.66;;;4.55;98.12
2549;BME280;1284;53.520;10.248;2024-01-15T10:57:57;98632.63;;;4.45;98.47
2549;BME280;1284;53.520;10.248;2024-01-15T11:00:23;98645.63;;;4.47;98.40
2549;BME280;1284;53.520;10.248;2024-01-15T11:02:50;98644.41;;;4.41;98.83
2549;BME280;1284;53.520;10.248;2024-01-15T11:05:16;98636.59;;;4.25;99.20
2549;BME280;1284;53.520;10.248;2024-01-15T11:07:50;98638.75;;;4.46;99.11
2549;BME280;1284;53.520;10.248;2024-01-15T11:10:38;98631.28;;;4.25;100.00
2549;BME280;1284;53.520;10.248;2024-01-15T11:13:14;98634.06;;;4.36;99.48
2549;BME280;1284;53.520;10.248;2024-01-15T11:16:00;98643.84;;;4.28;98.92
2549;BME280;1284;53.520;10.248;2024-01-15T11:18:27;98631.03;;;4.37;99.01
2549;BME280;1284;53.520;10.248;2024-01-15T11:21:19;98644.50;;;4.18;99.54
2549;BME280;1284;53.520;10.248;2024-01-15T11:23:50;98639.81;;;4.08;99.95
2549;BME280;1284;53.520;10.248;2024-01-15T11:28:55;98645.44;;;4.03;100.00
2549;BME280;1284;53.520;10.248;2024-01-15T11:31:29;98640.41;;;3.95;100.00
2549;BME280;1284;53.520;10.248;2024-01-15T11:34:14;98643.38;;;4.19;100.00
2549;BME280;1284;53.520;10.248;2024-01-15T11:41:55;98644.59;;;4.25;99.12
2549;BME280;1284;53.520;10.248;2024-01-15T23:44:56;99418.91;;;2.99;90.36
2549;BME280;1284;53.520;10.248;2024-01-15T23:47:22;99433.84;;;3.03;90.55
2549;BME280;1284;53.520;10.248;2024-01-15T23:49:49;99430.94;;;3.08;90.98
2549;BME280;1284;53.520;10.248;2024-01-15T23:52:15;99443.59;;;2.99;90.53
2549;BME280;1284;53.520;10.248;2024-01-15T23:54:41;99441.50;;;2.93;91.13
2549;BME280;1284;53.520;10.248;2024-01-15T23:57:06;99435.63;;;2.75;91.28
2549;BME280;1284;53.520;10.248;2024-01-15T23:59:32;99438.53;;;2.94;91.80
